sensor_id;sensor_type;location;lat;lon;timestamp;pressure;altitude;pressure_sealevel;temperature;humidity
54872;BME280;43914;57.680;11.982;2023-02-13T00:16:09;102100.15;;;4.74;100.00
54872;BME280;43914;57.680;11.982;2023-02-13T00:18:37;102095.75;;;4.73;100.00
54872;BME280;43914;57.680;11.982;2023-02-13T00:21:11;102087.98;;;4.72;100.00
54872;BME280;43914;57.680;11.982;2023-02-13T00:23:38;102088.16;;;4.72;100.00
54872;BME280;43914;57.680;11.982;2023-02-13T00:26:08;102092.41;;;4.73;100.00
54872;BME280;43914;57.680;11.982;2023-02-13T00:28:34;102090.54;;;4.74;100.00
54872;BME280;43914;57.680;11.982;2023-02-13T00:31:06;102092.27;;;4.75;100.00
54872;BME280;43914;57.680;11.982;2023-02-13T00:33:33;102088.92;;;4.74;100.00
54872;BME280;43914;57.680;11.982;2023-02-13T00:36:10;102093.34;;;4.74;100.00
54872;BME280;43914;57.680;11.982;2023-02-13T00:38:37;102095.70;;;4.74;100.00
54872;BME280;43914;57.680;11.982;2023-02-13T00:41:04;102099.98;;;4.73;100.00
54872;BME280;43914;57.680;11.982;2023-02-13T00:43:30;102097.02;;;4.73;100.00
54872;BME280;43914;57.680;11.982;2023-02-13T00:45:56;102098.88;;;4.72;100.00
54872;BME280;43914;57.680;11.982;2023-02-13T00:48:26;102098.15;;;4.72;100.00
54872;BME280;43914;57.680;11.982;2023-02-13T00:50:53;102097.34;;;4.71;100.00
54872;BME280;43914;57.680;11.982;2023-02-13T00:53:19;102097.70;;;4.71;100.00
54872;BME280;43914;57.680;11.982;2023-02-13T00:55:46;102100.42;;;4.70;100.00
54872;BME280;43914;57.680;11.982;2023-02-13T00:58:11;102099.15;;;4.68;100.00
54872;BME280;43914;57.680;11.982;2023-02-13T01:00:37;102094.33;;;4.66;100.00
54872;BME280;43914;57.680;11.982;2023-02-13T01:03:03;102093.86;;;4.65;100.00
54872;BME280;43914;57.680;11.982;2023-02-13T01:05:29;102094.29;;;4.64;100.00
54872;BME280;43914;57.680;11.982;2023-02-13T01:07:54;102092.12;;;4.62;100.00
54872;BME280;43914;57.680;11.982;2023-02-13T01:10:20;102090.50;;;4.62;100.00
54872;BME280;43914;57.680;11.982;2023-02-13T01:12:46;102081.69;;;4.61;100.00
54872;BME280;43914;57.680;11.982;2023-02-13T01:15:11;102084.80;;;4.60;100.00
54872;BME280;43914;57.680;11.982;2023-02-13T01:17:37;102086.73;;;4.58;100.00
54872;BME280;43914;57.680;11.982;2023-02-13T01:20:08;102082.36;;;4.57;100.00
54872;BME280;43914;57.680;11.982;2023-02-13T01:22:34;102081.01;;;4.56;100.00
54872;BME280;43914;57.680;11.982;2023-02-13T01:25:01;102079.63;;;4.56;100.00
54872;BME280;43914;57.680;11.982;2023-02-13T01:27:28;102079.16;;;4.55;100.00
54872;BME280;43914;57.680;11.982;2023-02-13T01:29:53;102082.76;;;4.54;100.00
54872;BME280;43914;57.680;11.982;2023-02-13T01:32:20;102073.98;;;4.53;100.00
54872;BME280;43914;57.680;11.982;2023-02-13T01:34:45;102074.08;;;4.51;100.00
54872;BME280;43914;57.680;11.982;2023-02-13T01:37:11;102066.41;;;4.49;100.00
54872;BME280;43914;57.680;11.982;2023-02-13T01:39:36;102065.40;;;4.48;100.00
54872;BME280;43914;57.680;11.982;2023-02-13T01:42:02;102068.91;;;4.46;100.00
54872;BME280;43914;57.680;11.982;2023-02-13T01:44:51;102064.30;;;4.46;100.00
54872;BME280;43914;57.680;11.982;2023-02-13T01:47:27;102066.34;;;4.45;100.00
54872;BME280;43914;57.680;11.982;2023-02-13T01:50:08;102066.66;;;4.43;100.00
54872;BME280;43914;57.680;11.982;2023-02-13T01:52:38;102065.27;;;4.40;100.00
54872;BME280;43914;57.680;11.982;2023-02-13T01:55:08;102061.00;;;4.40;100.00
54872;BME280;43914;57.680;11.982;2023-02-13T01:57:36;102060.45;;;4.41;100.00
54872;BME280;43914;57.680;11.982;2023-02-13T02:00:09;102053.42;;;4.40;100.00
54872;BME280;43914;57.680;11.982;2023-02-13T02:03:04;102060.16;;;4.40;100.00
54872;BME280;43914;57.680;11.982;2023-02-13T02:05:32;102063.41;;;4.39;100.00
54872;BME280;43914;57.680;11.982;2023-02-13T02:08:01;102057.93;;;4.39;100.00
54872;BME280;43914;57.680;11.982;2023-02-13T02:10:28;102054.79;;;4.38;100.00
54872;BME280;43914;57.680;11.982;2023-02-13T02:15:25;102051.40;;;4.36;100.00
54872;BME280;43914;57.680;11.982;2023-02-13T02:17:51;102063.88;;;4.35;100.00
54872;BME280;43914;57.680;11.982;2023-02-13T02:27:15;102072.16;;;4.31;100.00
54872;BME280;43914;57.680;11.982;2023-02-13T02:38:10;102067.88;;;4.26;100.00
54872;BME280;43914;57.680;11.982;2023-02-13T02:43:24;102057.11;;;4.23;100.00
54872;BME280;43914;57.680;11.982;2023-02-13T02:46:15;102059.48;;;4.22;100.00
54872;BME280;43914;57.680;11.982;2023-02-13T02:48:55;102060.81;;;4.20;100.00
54872;BME280;43914;57.680;11.982;2023-02-13T02:54:31;102057.39;;;4.16;100.00
54872;BME280;43914;57.680;11.982;2023-02-13T02:57:23;102061.41;;;4.15;100.00
54872;BME280;43914;57.680;11.982;2023-02-13T02:59:51;102058.68;;;4.13;100.00
54872;BME280;43914;57.680;11.982;2023-02-13T03:02:35;102061.02;;;4.13;100.00
54872;BME280;43914;57.680;11.982;2023-02-13T03:05:43;102063.50;;;4.10;100.00
54872;BME280;43914;57.680;11.982;2023-02-13T03:08:29;102064.61;;;4.09;100.00
54872;BME280;43914;57.680;11.982;2023-02-13T03:11:13;102063.41;;;4.09;100.00
54872;BME280;43914;57.680;11.982;2023-02-13T03:13:59;102059.08;;;4.08;100.00
54872;BME280;43914;57.680;11.982;2023-02-13T03:16:28;102056.86;;;4.06;100.00
54872;BME280;43914;57.680;11.982;2023-02-13T03:19:16;102056.55;;;4.06;100.00
54872;BME280;43914;57.680;11.982;2023-02-13T03:33:42;102055.95;;;4.04;100.00
54872;BME280;43914;57.680;11.982;2023-02-13T03:42:08;102033.30;;;3.98;100.00
54872;BME280;43914;57.680;11.982;2023-02-13T03:44:47;102041.54;;;4.02;100.00
54872;BME280;43914;57.680;11.982;2023-02-13T03:47:35;102036.70;;;4.03;100.00
54872;BME280;43914;57.680;11.982;2023-02-13T03:50:03;102032.77;;;4.03;100.00
54872;BME280;43914;57.680;11.982;2023-02-13T03:52:50;102029.07;;;4.03;100.00
54872;BME280;43914;57.680;11.982;2023-02-13T03:55:28;102033.52;;;4.05;100.00
54872;BME280;43914;57.680;11.982;2023-02-13T03:58:17;102030.48;;;4.06;100.00
54872;BME280;43914;57.680;11.982;2023-02-13T04:01:07;102037.29;;;4.07;100.00
54872;BME280;43914;57.680;11.982;2023-02-13T04:06:14;102044.95;;;4.09;100.00
54872;BME280;43914;57.680;11.982;2023-02-13T04:08:41;102042.73;;;4.10;100.00
54872;BME280;43914;57.680;11.982;2023-02-13T04:11:34;102044.11;;;4.11;100.00
54872;BME280;43914;57.680;11.982;2023-02-13T04:14:11;102049.07;;;4.11;100.00
54872;BME280;43914;57.680;11.982;2023-02-13T04:16:42;102044.17;;;4.10;100.00
54872;BME280;43914;57.680;11.982;2023-02-13T04:19:10;102047.92;;;4.10;100.00
54872;BME280;43914;57.680;11.982;2023-02-13T04:21:37;102044.61;;;4.09;100.00
54872;BME280;43914;57.680;11.982;2023-02-13T04:24:05;102044.36;;;4.08;100.00
54872;BME280;43914;57.680;11.982;2023-02-13T04:26:40;102049.59;;;4.06;100.00
54872;BME280;43914;57.680;11.982;2023-02-13T04:29:06;102062.86;;;4.07;100.00
54872;BME280;43914;57.680;11.982;2023-02-13T04:31:32;102065.25;;;4.05;100.00
54872;BME280;43914;57.680;11.982;2023-02-13T04:33:58;102062.67;;;4.04;100.00
54872;BME280;43914;57.680;11.982;2023-02-13T04:36:23;102060.80;;;4.03;100.00
54872;BME280;43914;57.680;11.982;2023-02-13T04:38:49;102064.00;;;4.00;100.00
54872;BME280;43914;57.680;11.982;2023-02-13T04:41:15;102066.79;;;3.98;100.00
54872;BME280;43914;57.680;11.982;2023-02-13T04:43:40;102070.33;;;3.99;100.00
54872;BME280;43914;57.680;11.982;2023-02-13T04:46:06;102063.35;;;3.97;100.00
54872;BME280;43914;57.680;11.982;2023-02-13T04:48:31;102057.15;;;3.95;100.00
54872;BME280;43914;57.680;11.982;2023-02-13T04:50:57;102058.54;;;3.92;100.00
54872;BME280;43914;57.680;11.982;2023-02-13T04:53:22;102064.45;;;3.91;100.00
54872;BME280;43914;57.680;11.982;2023-02-13T04:55:48;102063.79;;;3.91;100.00
54872;BME280;43914;57.680;11.982;2023-02-13T04:58:14;102068.23;;;3.90;100.00
54872;BME280;43914;57.680;11.982;2023-02-13T05:00:40;102066.64;;;3.90;100.00
54872;BME280;43914;57.680;11.982;2023-02-13T05:03:11;102059.17;;;3.88;100.00
54872;BME280;43914;57.680;11.982;2023-02-13T05:05:37;102053.23;;;3.89;100.00
54872;BME280;43914;57.680;11.982;2023-02-13T05:08:04;102054.30;;;3.89;100.00
54872;BME280;43914;57.680;11.982;2023-02-13T05:10:30;102054.59;;;3.90;100.00
54872;BME280;43914;57.680;11.982;2023-02-13T05:12:55;102049.39;;;3.91;100.00
54872;BME280;43914;57.680;11.982;2023-02-13T05:15:21;102053.30;;;3.91;100.00
54872;BME280;43914;57.680;11.982;2023-02-13T05:17:48;102053.20;;;3.93;100.00
54872;BME280;43914;57.680;11.982;2023-02-13T05:20:14;102053.83;;;3.94;100.00
54872;BME280;43914;57.680;11.982;2023-02-13T05:22:47;102053.09;;;3.94;100.00
54872;BME280;43914;57.680;11.982;2023-02-13T05:25:32;102051.82;;;3.95;100.00
54872;BME280;43914;57.680;11.982;2023-02-13T05:27:58;102052.88;;;3.95;100.00
54872;BME280;43914;57.680;11.982;2023-02-13T05:30:24;102054.59;;;3.96;100.00
54872;BME280;43914;57.680;11.982;2023-02-13T05:32:50;102055.20;;;3.97;100.00
54872;BME280;43914;57.680;11.982;2023-02-13T05:35:23;102059.92;;;3.98;100.00
54872;BME280;43914;57.680;11.982;2023-02-13T05:37:49;102061.49;;;3.98;100.00
54872;BME280;43914;57.680;11.982;2023-02-13T05:40:15;102061.81;;;3.99;100.00
54872;BME280;43914;57.680;11.982;2023-02-13T05:42:41;102071.79;;;3.98;100.00
54872;BME280;43914;57.680;11.982;2023-02-13T05:45:07;102070.93;;;4.00;100.00
54872;BME280;43914;57.680;11.982;2023-02-13T05:47:34;102073.58;;;4.00;100.00
54872;BME280;43914;57.680;11.982;2023-02-13T05:49:59;102077.48;;;4.00;100.00
54872;BME280;43914;57.680;11.982;2023-02-13T05:52:25;102079.86;;;3.99;100.00
54872;BME280;43914;57.680;11.982;2023-02-13T05:54:50;102088.05;;;3.99;100.00
54872;BME280;43914;57.680;11.982;2023-02-13T05:57:16;102090.55;;;3.99;100.00
54872;BME280;43914;57.680;11.982;2023-02-13T05:59:42;102092.67;;;3.99;100.00
54872;BME280;43914;57.680;11.982;2023-02-13T06:02:08;102098.09;;;4.00;100.00
54872;BME280;43914;57.680;11.982;2023-02-13T06:04:33;102097.59;;;3.99;100.00
54872;BME280;43914;57.680;11.982;2023-02-13T06:06:59;102096.19;;;3.99;100.00
54872;BME280;43914;57.680;11.982;2023-02-13T06:09:24;102082.18;;;3.99;100.00
54872;BME280;43914;57.680;11.982;2023-02-13T06:11:50;102095.05;;;4.00;100.00
54872;BME280;43914;57.680;11.982;2023-02-13T06:14:15;102099.61;;;4.01;100.00
54872;BME280;43914;57.680;11.982;2023-02-13T06:16:41;102089.70;;;4.03;100.00
54872;BME280;43914;57.680;11.982;2023-02-13T06:19:06;102089.02;;;4.00;100.00
54872;BME280;43914;57.680;11.982;2023-02-13T06:21:32;102093.32;;;4.04;100.00
54872;BME280;43914;57.680;11.982;2023-02-13T06:24:06;102092.42;;;4.05;100.00
54872;BME280;43914;57.680;11.982;2023-02-13T06:26:33;102101.13;;;4.04;100.00
54872;BME280;43914;57.680;11.982;2023-02-13T06:28:58;102101.91;;;4.06;100.00
54872;BME280;43914;57.680;11.982;2023-02-13T06:31:24;102111.48;;;4.06;100.00
54872;BME280;43914;57.680;11.982;2023-02-13T06:33:49;102108.06;;;4.07;100.00
54872;BME280;43914;57.680;11.982;2023-02-13T06:36:15;102113.70;;;4.08;100.00
54872;BME280;43914;57.680;11.982;2023-02-13T06:38:40;102114.79;;;4.07;100.00
54872;BME280;43914;57.680;11.982;2023-02-13T06:41:07;102119.90;;;4.08;100.00
54872;BME280;43914;57.680;11.982;2023-02-13T06:43:34;102118.46;;;4.08;100.00
54872;BME280;43914;57.680;11.982;2023-02-13T06:46:04;102121.99;;;4.08;100.00
54872;BME280;43914;57.680;11.982;2023-02-13T06:48:29;102114.65;;;4.09;100.00
54872;BME280;43914;57.680;11.982;2023-02-13T06:50:55;102112.23;;;4.11;100.00
54872;BME280;43914;57.680;11.982;2023-02-13T06:53:20;102112.67;;;4.12;100.00
54872;BME280;43914;57.680;11.982;2023-02-13T06:55:53;102106.80;;;4.12;100.00
54872;BME280;43914;57.680;11.982;2023-02-13T06:58:20;102104.58;;;4.14;100.00
54872;BME280;43914;57.680;11.982;2023-02-13T07:00:47;102114.60;;;4.15;100.00
54872;BME280;43914;57.680;11.982;2023-02-13T07:03:13;102107.08;;;4.16;100.00
54872;BME280;43914;57.680;11.982;2023-02-13T07:05:39;102103.46;;;4.17;100.00
54872;BME280;43914;57.680;11.982;2023-02-13T07:08:06;102103.90;;;4.18;100.00
54872;BME280;43914;57.680;11.982;2023-02-13T07:10:31;102103.38;;;4.18;100.00
54872;BME280;43914;57.680;11.982;2023-02-13T07:12:57;102099.43;;;4.19;100.00
54872;BME280;43914;57.680;11.982;2023-02-13T07:15:22;102101.26;;;4.20;100.00
54872;BME280;43914;57.680;11.982;2023-02-13T07:17:54;102108.11;;;4.22;100.00
54872;BME280;43914;57.680;11.982;2023-02-13T07:20:20;102110.82;;;4.24;100.00
54872;BME280;43914;57.680;11.982;2023-02-13T07:22:45;102114.54;;;4.24;100.00
54872;BME280;43914;57.680;11.982;2023-02-13T07:25:11;102115.42;;;4.26;100.00
54872;BME280;43914;57.680;11.982;2023-02-13T07:27:36;102119.88;;;4.28;100.00
54872;BME280;43914;57.680;11.982;2023-02-13T07:30:02;102118.38;;;4.29;100.00
54872;BME280;43914;57.680;11.982;2023-02-13T07:32:28;102112.52;;;4.32;100.00
54872;BME280;43914;57.680;11.982;2023-02-13T07:34:53;102102.86;;;4.33;100.00
54872;BME280;43914;57.680;11.982;2023-02-13T07:37:19;102102.73;;;4.35;100.00
54872;BME280;43914;57.680;11.982;2023-02-13T07:39:45;102096.96;;;4.36;100.00
54872;BME280;43914;57.680;11.982;2023-02-13T07:42:10;102088.52;;;4.38;100.00
54872;BME280;43914;57.680;11.982;2023-02-13T07:44:35;102084.73;;;4.39;100.00
54872;BME280;43914;57.680;11.982;2023-02-13T07:47:01;102082.10;;;4.41;100.00
54872;BME280;43914;57.680;11.982;2023-02-13T07:49:26;102077.31;;;4.43;100.00
54872;BME280;43914;57.680;11.982;2023-02-13T07:51:52;102080.13;;;4.46;100.00
54872;BME280;43914;57.680;11.982;2023-02-13T07:54:17;102091.27;;;4.49;100.00
54872;BME280;43914;57.680;11.982;2023-02-13T07:56:43;102093.88;;;4.50;100.00
54872;BME280;43914;57.680;11.982;2023-02-13T07:59:09;102093.71;;;4.52;100.00
54872;BME280;43914;57.680;11.982;2023-02-13T08:01:35;102096.33;;;4.55;100.00
54872;BME280;43914;57.680;11.982;2023-02-13T08:04:00;102105.15;;;4.58;100.00
54872;BME280;43914;57.680;11.982;2023-02-13T08:06:26;102112.68;;;4.60;100.00
54872;BME280;43914;57.680;11.982;2023-02-13T08:08:52;102111.40;;;4.63;100.00
54872;BME280;43914;57.680;11.982;2023-02-13T08:11:37;102134.46;;;4.66;100.00
54872;BME280;43914;57.680;11.982;2023-02-13T08:14:24;102143.92;;;4.68;100.00
54872;BME280;43914;57.680;11.982;2023-02-13T08:16:50;102147.96;;;4.71;100.00
54872;BME280;43914;57.680;11.982;2023-02-13T08:19:16;102160.49;;;4.74;100.00
54872;BME280;43914;57.680;11.982;2023-02-13T08:21:42;102163.62;;;4.78;100.00
54872;BME280;43914;57.680;11.982;2023-02-13T08:24:08;102162.19;;;4.83;100.00
54872;BME280;43914;57.680;11.982;2023-02-13T08:26:33;102171.44;;;4.87;100.00
54872;BME280;43914;57.680;11.982;2023-02-13T08:28:59;102174.77;;;4.90;100.00
54872;BME280;43914;57.680;11.982;2023-02-13T08:31:24;102179.41;;;4.95;100.00
54872;BME280;43914;57.680;11.982;2023-02-13T08:33:50;102183.76;;;4.99;100.00
54872;BME280;43914;57.680;11.982;2023-02-13T08:36:16;102190.98;;;5.02;100.00
54872;BME280;43914;57.680;11.982;2023-02-13T08:38:48;102196.81;;;5.07;100.00
54872;BME280;43914;57.680;11.982;2023-02-13T08:41:14;102196.76;;;5.11;100.00
54872;BME280;43914;57.680;11.982;2023-02-13T08:43:39;102204.63;;;5.15;100.00
54872;BME280;43914;57.680;11.982;2023-02-13T08:46:05;102202.11;;;5.18;100.00
54872;BME280;43914;57.680;11.982;2023-02-13T08:48:30;102203.52;;;5.21;100.00
54872;BME280;43914;57.680;11.982;2023-02-13T08:50:56;102211.43;;;5.24;100.00
54872;BME280;43914;57.680;11.982;2023-02-13T08:53:22;102211.00;;;5.30;100.00
54872;BME280;43914;57.680;11.982;2023-02-13T08:55:55;102207.75;;;5.36;100.00
54872;BME280;43914;57.680;11.982;2023-02-13T08:58:21;102202.88;;;5.39;100.00
54872;BME280;43914;57.680;11.982;2023-02-13T09:00:47;102196.92;;;5.42;100.00
54872;BME280;43914;57.680;11.982;2023-02-13T09:03:13;102201.79;;;5.44;100.00
54872;BME280;43914;57.680;11.982;2023-02-13T09:05:38;102203.02;;;5.46;100.00
54872;BME280;43914;57.680;11.982;2023-02-13T09:08:04;102206.45;;;5.51;100.00
54872;BME280;43914;57.680;11.982;2023-02-13T09:10:32;102205.20;;;5.54;100.00
54872;BME280;43914;57.680;11.982;2023-02-13T09:12:58;102210.88;;;5.54;100.00
54872;BME280;43914;57.680;11.982;2023-02-13T09:15:25;102221.27;;;5.55;100.00
54872;BME280;43914;57.680;11.982;2023-02-13T09:17:51;102212.98;;;5.54;100.00
54872;BME280;43914;57.680;11.982;2023-02-13T09:20:16;102218.54;;;5.56;100.00
54872;BME280;43914;57.680;11.982;2023-02-13T09:22:42;102208.08;;;5.58;100.00
54872;BME280;43914;57.680;11.982;2023-02-13T09:25:08;102206.55;;;5.61;100.00
54872;BME280;43914;57.680;11.982;2023-02-13T09:27:34;102208.84;;;5.67;100.00
54872;BME280;43914;57.680;11.982;2023-02-13T09:30:01;102201.94;;;5.69;100.00
54872;BME280;43914;57.680;11.982;2023-02-13T09:32:26;102204.02;;;5.72;100.00
54872;BME280;43914;57.680;11.982;2023-02-13T09:34:52;102191.71;;;5.72;100.00
54872;BME280;43914;57.680;11.982;2023-02-13T09:37:18;102192.34;;;5.73;100.00
54872;BME280;43914;57.680;11.982;2023-02-13T09:39:44;102205.56;;;5.75;100.00
54872;BME280;43914;57.680;11.982;2023-02-13T09:42:20;102197.65;;;5.78;100.00
54872;BME280;43914;57.680;11.982;2023-02-13T09:44:57;102192.38;;;5.80;100.00
54872;BME280;43914;57.680;11.982;2023-02-13T09:47:57;102193.63;;;5.85;100.00
54872;BME280;43914;57.680;11.982;2023-02-13T09:50:25;102195.65;;;5.90;100.00
54872;BME280;43914;57.680;11.982;2023-02-13T09:52:54;102190.77;;;5.94;100.00
54872;BME280;43914;57.680;11.982;2023-02-13T09:58:04;102195.67;;;6.00;100.00
54872;BME280;43914;57.680;11.982;2023-02-13T10:00:36;102200.31;;;6.02;100.00
54872;BME280;43914;57.680;11.982;2023-02-13T10:03:17;102196.38;;;6.05;100.00
54872;BME280;43914;57.680;11.982;2023-02-13T10:06:11;102204.45;;;6.11;100.00
54872;BME280;43914;57.680;11.982;2023-02-13T10:19:43;102214.75;;;6.28;100.00
54872;BME280;43914;57.680;11.982;2023-02-13T10:24:52;102229.48;;;6.35;100.00
54872;BME280;43914;57.680;11.982;2023-02-13T10:27:37;102234.17;;;6.37;100.00
54872;BME280;43914;57.680;11.982;2023-02-13T10:30:14;102242.17;;;6.37;100.00
54872;BME280;43914;57.680;11.982;2023-02-13T10:33:14;102242.15;;;6.40;100.00
54872;BME280;43914;57.680;11.982;2023-02-13T10:36:00;102242.98;;;6.42;100.00
54872;BME280;43914;57.680;11.982;2023-02-13T10:38:33;102244.08;;;6.47;100.00
54872;BME280;43914;57.680;11.982;2023-02-13T10:44:31;102232.96;;;6.55;100.00
54872;BME280;43914;57.680;11.982;2023-02-13T10:55:30;102247.52;;;6.74;100.00
54872;BME280;43914;57.680;11.982;2023-02-13T10:58:45;102249.23;;;6.81;100.00
54872;BME280;43914;57.680;11.982;2023-02-13T11:01:31;102257.09;;;6.83;100.00
54872;BME280;43914;57.680;11.982;2023-02-13T11:04:05;102257.70;;;6.82;100.00
54872;BME280;43914;57.680;11.982;2023-02-13T11:06:34;102248.23;;;6.80;100.00
54872;BME280;43914;57.680;11.982;2023-02-13T11:09:00;102240.19;;;6.78;100.00
54872;BME280;43914;57.680;11.982;2023-02-13T11:11:35;102248.14;;;6.77;100.00
54872;BME280;43914;57.680;11.982;2023-02-13T11:14:15;102243.49;;;6.75;100.00
54872;BME280;43914;57.680;11.982;2023-02-13T11:17:00;102258.95;;;6.78;100.00
54872;BME280;43914;57.680;11.982;2023-02-13T11:19:38;102267.26;;;6.74;100.00
54872;BME280;43914;57.680;11.982;2023-02-13T11:22:11;102262.09;;;6.72;100.00
54872;BME280;43914;57.680;11.982;2023-02-13T11:24:41;102261.47;;;6.73;100.00
54872;BME280;43914;57.680;11.982;2023-02-13T11:27:09;102255.35;;;6.74;100.00
54872;BME280;43914;57.680;11.982;2023-02-13T11:29:52;102247.16;;;6.74;100.00
54872;BME280;43914;57.680;11.982;2023-02-13T11:32:27;102238.06;;;6.76;100.00
54872;BME280;43914;57.680;11.982;2023-02-13T11:34:53;102237.39;;;6.77;100.00
54872;BME280;43914;57.680;11.982;2023-02-13T11:37:24;102238.42;;;6.76;100.00
54872;BME280;43914;57.680;11.982;2023-02-13T11:39:54;102243.66;;;6.77;100.00
54872;BME280;43914;57.680;11.982;2023-02-13T11:45:38;102250.95;;;6.82;100.00
54872;BME280;43914;57.680;11.982;2023-02-13T11:47:40;102241.84;;;6.87;100.00
54872;BME280;43914;57.680;11.982;2023-02-13T11:50:28;102233.52;;;6.93;100.00
54872;BME280;43914;57.680;11.982;2023-02-13T11:53:07;102239.67;;;7.01;100.00
54872;BME280;43914;57.680;11.982;2023-02-13T11:55:40;102234.90;;;7.05;100.00
54872;BME280;43914;57.680;11.982;2023-02-13T11:58:27;102234.33;;;7.16;100.00
54872;BME280;43914;57.680;11.982;2023-02-13T12:03:34;102229.05;;;7.20;100.00
54872;BME280;43914;57.680;11.982;2023-02-13T12:08:29;102227.61;;;7.25;100.00
54872;BME280;43914;57.680;11.982;2023-02-13T12:10:57;102223.61;;;7.30;100.00
54872;BME280;43914;57.680;11.982;2023-02-13T12:13:32;102221.63;;;7.30;100.00
54872;BME280;43914;57.680;11.982;2023-02-13T12:16:04;102228.30;;;7.29;100.00
54872;BME280;43914;57.680;11.982;2023-02-13T12:18:35;102228.73;;;7.28;100.00
54872;BME280;43914;57.680;11.982;2023-02-13T12:21:13;102226.59;;;7.24;100.00
54872;BME280;43914;57.680;11.982;2023-02-13T12:23:57;102233.71;;;7.24;100.00
54872;BME280;43914;57.680;11.982;2023-02-13T12:27:07;102232.61;;;7.25;100.00
54872;BME280;43914;57.680;11.982;2023-02-13T12:46:39;102238.77;;;7.30;100.00
54872;BME280;43914;57.680;11.982;2023-02-13T12:59:44;102255.33;;;7.37;100.00
54872;BME280;43914;57.680;11.982;2023-02-13T13:14:26;102259.60;;;7.35;100.00
54872;BME280;43914;57.680;11.982;2023-02-13T13:20:36;102262.39;;;7.27;100.00
54872;BME280;43914;57.680;11.982;2023-02-13T13:27:41;102265.50;;;7.19;100.00
54872;BME280;43914;57.680;11.982;2023-02-13T13:32:40;102268.77;;;7.12;100.00
54872;BME280;43914;57.680;11.982;2023-02-13T13:35:14;102265.20;;;7.07;100.00
54872;BME280;43914;57.680;11.982;2023-02-13T13:37:47;102271.73;;;7.03;100.00
54872;BME280;43914;57.680;11.982;2023-02-13T13:45:57;102271.35;;;6.95;100.00
54872;BME280;43914;57.680;11.982;2023-02-13T13:48:53;102273.68;;;6.94;100.00
54872;BME280;43914;57.680;11.982;2023-02-13T13:51:19;102277.52;;;6.93;100.00
54872;BME280;43914;57.680;11.982;2023-02-13T14:05:02;102277.11;;;6.80;100.00
54872;BME280;43914;57.680;11.982;2023-02-13T14:07:36;102269.34;;;6.79;100.00
54872;BME280;43914;57.680;11.982;2023-02-13T14:10:04;102269.26;;;6.80;100.00
54872;BME280;43914;57.680;11.982;2023-02-13T14:14:58;102263.55;;;6.81;100.00
54872;BME280;43914;57.680;11.982;2023-02-13T14:18:20;102267.30;;;6.83;100.00
54872;BME280;43914;57.680;11.982;2023-02-13T14:26:30;102276.72;;;6.81;100.00
54872;BME280;43914;57.680;11.982;2023-02-13T14:31:36;102278.86;;;6.72;100.00
54872;BME280;43914;57.680;11.982;2023-02-13T14:34:19;102285.92;;;6.65;100.00
54872;BME280;43914;57.680;11.982;2023-02-13T14:37:15;102286.50;;;6.60;100.00
54872;BME280;43914;57.680;11.982;2023-02-13T14:40:17;102290.30;;;6.55;100.00
54872;BME280;43914;57.680;11.982;2023-02-13T14:42:58;102293.90;;;6.54;100.00
54872;BME280;43914;57.680;11.982;2023-02-13T14:45:31;102291.70;;;6.50;100.00
54872;BME280;43914;57.680;11.982;2023-02-13T14:48:05;102295.64;;;6.48;100.00
54872;BME280;43914;57.680;11.982;2023-02-13T14:50:50;102291.23;;;6.43;100.00
54872;BME280;43914;57.680;11.982;2023-02-13T14:55:49;102299.80;;;6.38;100.00
54872;BME280;43914;57.680;11.982;2023-02-13T14:58:45;102300.57;;;6.34;100.00
54872;BME280;43914;57.680;11.982;2023-02-13T15:01:38;102303.33;;;6.33;100.00
54872;BME280;43914;57.680;11.982;2023-02-13T15:04:12;102306.66;;;6.32;100.00
54872;BME280;43914;57.680;11.982;2023-02-13T15:06:41;102309.27;;;6.32;100.00
54872;BME280;43914;57.680;11.982;2023-02-13T15:11:45;102308.84;;;6.26;100.00
54872;BME280;43914;57.680;11.982;2023-02-13T15:16:55;102313.02;;;6.23;100.00
54872;BME280;43914;57.680;11.982;2023-02-13T15:19:23;102314.45;;;6.21;100.00
54872;BME280;43914;57.680;11.982;2023-02-13T15:21:54;102320.27;;;6.18;100.00
54872;BME280;43914;57.680;11.982;2023-02-13T15:24:21;102320.07;;;6.14;100.00
54872;BME280;43914;57.680;11.982;2023-02-13T15:27:03;102323.75;;;6.11;100.00
54872;BME280;43914;57.680;11.982;2023-02-13T15:29:30;102314.19;;;6.05;100.00
54872;BME280;43914;57.680;11.982;2023-02-13T15:31:56;102316.89;;;6.02;100.00
54872;BME280;43914;57.680;11.982;2023-02-13T15:34:29;102311.95;;;5.99;100.00
54872;BME280;43914;57.680;11.982;2023-02-13T15:36:56;102316.55;;;5.94;100.00
54872;BME280;43914;57.680;11.982;2023-02-13T15:39:27;102312.93;;;5.90;100.00
54872;BME280;43914;57.680;11.982;2023-02-13T15:41:58;102309.06;;;5.87;100.00
54872;BME280;43914;57.680;11.982;2023-02-13T15:44:34;102308.59;;;5.84;100.00
54872;BME280;43914;57.680;11.982;2023-02-13T15:47:07;102314.21;;;5.83;100.00
54872;BME280;43914;57.680;11.982;2023-02-13T15:49:42;102315.77;;;5.78;100.00
54872;BME280;43914;57.680;11.982;2023-02-13T15:52:34;102320.06;;;5.75;100.00
54872;BME280;43914;57.680;11.982;2023-02-13T15:55:04;102321.77;;;5.69;100.00
54872;BME280;43914;57.680;11.982;2023-02-13T15:57:30;102326.60;;;5.64;100.00
54872;BME280;43914;57.680;11.982;2023-02-13T15:59:58;102329.07;;;5.59;100.00
54872;BME280;43914;57.680;11.982;2023-02-13T16:02:35;102333.33;;;5.54;100.00